sensor_id;sensor_type;location;lat;lon;timestamp;temperature;humidity
15983;DHT22;14442;50.196;8.096;2023-05-21T00:00:49;22.50;51.60
15983;DHT22;14442;50.196;8.096;2023-05-21T00:03:18;22.50;51.60
15983;DHT22;14442;50.196;8.096;2023-05-21T00:05:45;22.50;51.60
15983;DHT22;14442;50.196;8.096;2023-05-21T00:08:14;22.50;51.60
15983;DHT22;14442;50.196;8.096;2023-05-21T00:10:41;22.50;51.60
15983;DHT22;14442;50.196;8.096;2023-05-21T00:13:09;22.50;51.60
15983;DHT22;14442;50.196;8.096;2023-05-21T00:15:35;22.50;51.60
15983;DHT22;14442;50.196;8.096;2023-05-21T00:18:02;22.50;51.60
15983;DHT22;14442;50.196;8.096;2023-05-21T00:20:29;22.50;51.70
15983;DHT22;14442;50.196;8.096;2023-05-21T00:22:57;22.50;51.60
15983;DHT22;14442;50.196;8.096;2023-05-21T00:25:24;22.50;51.70
15983;DHT22;14442;50.196;8.096;2023-05-21T00:27:50;22.50;51.70
15983;DHT22;14442;50.196;8.096;2023-05-21T00:30:21;22.50;51.70
15983;DHT22;14442;50.196;8.096;2023-05-21T00:32:48;22.50;51.60
15983;DHT22;14442;50.196;8.096;2023-05-21T00:35:15;22.40;51.60
15983;DHT22;14442;50.196;8.096;2023-05-21T00:37:42;22.40;51.60
15983;DHT22;14442;50.196;8.096;2023-05-21T00:40:09;22.40;51.60
15983;DHT22;14442;50.196;8.096;2023-05-21T00:42:37;22.40;51.60
15983;DHT22;14442;50.196;8.096;2023-05-21T00:45:06;22.40;51.60
15983;DHT22;14442;50.196;8.096;2023-05-21T00:47:34;22.40;51.70
15983;DHT22;14442;50.196;8.096;2023-05-21T00:50:02;22.40;51.70
15983;DHT22;14442;50.196;8.096;2023-05-21T00:52:29;22.40;51.70
15983;DHT22;14442;50.196;8.096;2023-05-21T00:54:56;22.40;51.70
15983;DHT22;14442;50.196;8.096;2023-05-21T00:57:24;22.40;51.70
15983;DHT22;14442;50.196;8.096;2023-05-21T00:59:52;22.40;51.70
15983;DHT22;14442;50.196;8.096;2023-05-21T01:02:20;22.40;51.70
15983;DHT22;14442;50.196;8.096;2023-05-21T01:04:53;22.40;51.70
15983;DHT22;14442;50.196;8.096;2023-05-21T01:07:20;22.40;51.70
15983;DHT22;14442;50.196;8.096;2023-05-21T01:09:46;22.30;51.60
15983;DHT22;14442;50.196;8.096;2023-05-21T01:12:14;22.30;51.60
15983;DHT22;14442;50.196;8.096;2023-05-21T01:14:41;22.30;51.60
15983;DHT22;14442;50.196;8.096;2023-05-21T01:17:08;22.30;51.60
15983;DHT22;14442;50.196;8.096;2023-05-21T01:19:35;22.30;51.60
15983;DHT22;14442;50.196;8.096;2023-05-21T01:22:05;22.30;51.60
15983;DHT22;14442;50.196;8.096;2023-05-21T01:24:34;22.30;51.70
15983;DHT22;14442;50.196;8.096;2023-05-21T01:27:02;22.30;51.70
15983;DHT22;14442;50.196;8.096;2023-05-21T01:29:30;22.30;51.70
15983;DHT22;14442;50.196;8.096;2023-05-21T01:32:02;22.30;51.70
15983;DHT22;14442;50.196;8.096;2023-05-21T01:34:36;22.30;51.70
15983;DHT22;14442;50.196;8.096;2023-05-21T01:37:12;22.30;51.70
15983;DHT22;14442;50.196;8.096;2023-05-21T01:39:43;22.30;51.70
15983;DHT22;14442;50.196;8.096;2023-05-21T01:42:11;22.20;51.50
15983;DHT22;14442;50.196;8.096;2023-05-21T01:44:39;22.30;51.70
15983;DHT22;14442;50.196;8.096;2023-05-21T01:47:06;22.30;51.70
15983;DHT22;14442;50.196;8.096;2023-05-21T01:49:33;22.20;51.60
15983;DHT22;14442;50.196;8.096;2023-05-21T01:51:59;22.30;51.70
15983;DHT22;14442;50.196;8.096;2023-05-21T01:54:27;22.30;51.70
15983;DHT22;14442;50.196;8.096;2023-05-21T01:56:55;22.20;51.60
15983;DHT22;14442;50.196;8.096;2023-05-21T01:59:21;22.20;51.60
15983;DHT22;14442;50.196;8.096;2023-05-21T02:01:49;22.20;51.60
15983;DHT22;14442;50.196;8.096;2023-05-21T02:04:15;22.20;51.60
15983;DHT22;14442;50.196;8.096;2023-05-21T02:06:42;22.20;51.60
15983;DHT22;14442;50.196;8.096;2023-05-21T02:09:09;22.20;51.60
15983;DHT22;14442;50.196;8.096;2023-05-21T02:11:35;22.20;51.60
15983;DHT22;14442;50.196;8.096;2023-05-21T02:14:03;22.20;51.60
15983;DHT22;14442;50.196;8.096;2023-05-21T02:16:30;22.20;51.60
15983;DHT22;14442;50.196;8.096;2023-05-21T02:18:57;22.20;51.60
15983;DHT22;14442;50.196;8.096;2023-05-21T02:21:25;22.20;51.60
15983;DHT22;14442;50.196;8.096;2023-05-21T02:23:51;22.20;51.60
15983;DHT22;14442;50.196;8.096;2023-05-21T02:26:18;22.20;51.60
15983;DHT22;14442;50.196;8.096;2023-05-21T02:28:46;22.10;51.50
15983;DHT22;14442;50.196;8.096;2023-05-21T02:31:14;22.10;51.50
15983;DHT22;14442;50.196;8.096;2023-05-21T02:33:41;22.10;51.50
15983;DHT22;14442;50.196;8.096;2023-05-21T02:36:08;22.10;51.50
15983;DHT22;14442;50.196;8.096;2023-05-21T02:38:38;22.10;51.50
15983;DHT22;14442;50.196;8.096;2023-05-21T02:41:08;22.10;51.50
15983;DHT22;14442;50.196;8.096;2023-05-21T02:43:34;22.10;51.50
15983;DHT22;14442;50.196;8.096;2023-05-21T02:46:01;22.10;51.50
15983;DHT22;14442;50.196;8.096;2023-05-21T02:48:29;22.10;52.20
15983;DHT22;14442;50.196;8.096;2023-05-21T02:50:56;22.10;51.50
15983;DHT22;14442;50.196;8.096;2023-05-21T02:53:23;22.10;51.60
15983;DHT22;14442;50.196;8.096;2023-05-21T02:55:50;22.10;51.60
15983;DHT22;14442;50.196;8.096;2023-05-21T02:58:17;22.10;51.50
15983;DHT22;14442;50.196;8.096;2023-05-21T03:00:43;22.10;51.60
15983;DHT22;14442;50.196;8.096;2023-05-21T03:03:10;22.10;51.60
15983;DHT22;14442;50.196;8.096;2023-05-21T03:05:38;22.10;51.50
15983;DHT22;14442;50.196;8.096;2023-05-21T03:08:05;22.10;51.60
15983;DHT22;14442;50.196;8.096;2023-05-21T03:10:32;22.10;51.50
15983;DHT22;14442;50.196;8.096;2023-05-21T03:12:58;22.00;51.50
15983;DHT22;14442;50.196;8.096;2023-05-21T03:15:29;22.10;52.20
15983;DHT22;14442;50.196;8.096;2023-05-21T03:17:57;22.10;51.60
15983;DHT22;14442;50.196;8.096;2023-05-21T03:20:24;22.00;51.50
15983;DHT22;14442;50.196;8.096;2023-05-21T03:22:53;22.10;51.60
15983;DHT22;14442;50.196;8.096;2023-05-21T03:25:20;22.00;51.50
15983;DHT22;14442;50.196;8.096;2023-05-21T03:27:49;22.00;51.60
15983;DHT22;14442;50.196;8.096;2023-05-21T03:30:16;22.00;51.60
15983;DHT22;14442;50.196;8.096;2023-05-21T03:32:43;22.00;51.60
15983;DHT22;14442;50.196;8.096;2023-05-21T03:35:10;22.00;51.50
15983;DHT22;14442;50.196;8.096;2023-05-21T03:37:36;22.00;51.50
15983;DHT22;14442;50.196;8.096;2023-05-21T03:40:06;22.00;51.60
15983;DHT22;14442;50.196;8.096;2023-05-21T03:42:33;22.00;51.60
15983;DHT22;14442;50.196;8.096;2023-05-21T03:44:59;22.00;51.50
15983;DHT22;14442;50.196;8.096;2023-05-21T03:47:26;22.00;51.50
15983;DHT22;14442;50.196;8.096;2023-05-21T03:49:53;21.90;51.50
15983;DHT22;14442;50.196;8.096;2023-05-21T03:52:20;22.00;51.60
15983;DHT22;14442;50.196;8.096;2023-05-21T03:54:46;22.00;51.70
15983;DHT22;14442;50.196;8.096;2023-05-21T03:57:14;22.00;51.60
15983;DHT22;14442;50.196;8.096;2023-05-21T03:59:41;22.00;51.60
15983;DHT22;14442;50.196;8.096;2023-05-21T04:02:07;22.00;51.60
15983;DHT22;14442;50.196;8.096;2023-05-21T04:04:34;22.00;51.60
15983;DHT22;14442;50.196;8.096;2023-05-21T04:07:01;21.90;51.50
15983;DHT22;14442;50.196;8.096;2023-05-21T04:09:28;21.90;51.50
15983;DHT22;14442;50.196;8.096;2023-05-21T04:11:55;21.90;51.50
15983;DHT22;14442;50.196;8.096;2023-05-21T04:14:23;22.00;51.60
15983;DHT22;14442;50.196;8.096;2023-05-21T04:16:50;21.90;51.50
15983;DHT22;14442;50.196;8.096;2023-05-21T04:19:16;21.90;51.50
15983;DHT22;14442;50.196;8.096;2023-05-21T04:21:43;21.90;51.50
15983;DHT22;14442;50.196;8.096;2023-05-21T04:24:10;21.90;51.60
15983;DHT22;14442;50.196;8.096;2023-05-21T04:26:36;21.90;51.60
15983;DHT22;14442;50.196;8.096;2023-05-21T04:29:06;21.90;51.60
15983;DHT22;14442;50.196;8.096;2023-05-21T04:31:35;21.90;51.60
15983;DHT22;14442;50.196;8.096;2023-05-21T04:34:02;21.90;51.50
15983;DHT22;14442;50.196;8.096;2023-05-21T04:36:29;21.90;51.60
15983;DHT22;14442;50.196;8.096;2023-05-21T04:38:56;21.90;51.60
15983;DHT22;14442;50.196;8.096;2023-05-21T04:41:22;21.90;51.60
15983;DHT22;14442;50.196;8.096;2023-05-21T04:43:49;21.90;51.60
15983;DHT22;14442;50.196;8.096;2023-05-21T04:46:19;21.90;51.60
15983;DHT22;14442;50.196;8.096;2023-05-21T04:48:51;21.90;51.60
15983;DHT22;14442;50.196;8.096;2023-05-21T04:51:19;21.90;51.70
15983;DHT22;14442;50.196;8.096;2023-05-21T04:53:46;21.90;51.60
15983;DHT22;14442;50.196;8.096;2023-05-21T04:56:15;21.90;51.60
15983;DHT22;14442;50.196;8.096;2023-05-21T04:58:42;21.90;51.60
15983;DHT22;14442;50.196;8.096;2023-05-21T05:01:09;21.90;51.60
15983;DHT22;14442;50.196;8.096;2023-05-21T05:03:36;21.90;51.60
15983;DHT22;14442;50.196;8.096;2023-05-21T05:06:05;21.90;51.60
15983;DHT22;14442;50.196;8.096;2023-05-21T05:08:33;21.90;51.60
15983;DHT22;14442;50.196;8.096;2023-05-21T05:10:59;21.90;51.60
15983;DHT22;14442;50.196;8.096;2023-05-21T05:13:26;21.90;51.60
15983;DHT22;14442;50.196;8.096;2023-05-21T05:15:53;21.80;51.50
15983;DHT22;14442;50.196;8.096;2023-05-21T05:18:19;21.90;51.60
15983;DHT22;14442;50.196;8.096;2023-05-21T05:20:46;21.90;51.60
15983;DHT22;14442;50.196;8.096;2023-05-21T05:23:14;21.80;51.50
15983;DHT22;14442;50.196;8.096;2023-05-21T05:25:41;21.90;51.60
15983;DHT22;14442;50.196;8.096;2023-05-21T05:28:07;21.90;51.60
15983;DHT22;14442;50.196;8.096;2023-05-21T05:30:35;21.80;51.50
15983;DHT22;14442;50.196;8.096;2023-05-21T05:33:01;21.90;51.60
15983;DHT22;14442;50.196;8.096;2023-05-21T05:35:28;21.80;51.50
15983;DHT22;14442;50.196;8.096;2023-05-21T05:37:55;21.80;51.50
15983;DHT22;14442;50.196;8.096;2023-05-21T05:40:23;21.90;51.60
15983;DHT22;14442;50.196;8.096;2023-05-21T05:42:49;21.90;51.50
15983;DHT22;14442;50.196;8.096;2023-05-21T05:45:17;21.80;51.50
15983;DHT22;14442;50.196;8.096;2023-05-21T05:47:44;21.80;51.50
15983;DHT22;14442;50.196;8.096;2023-05-21T05:50:11;21.90;51.60
15983;DHT22;14442;50.196;8.096;2023-05-21T05:52:38;21.80;51.50
15983;DHT22;14442;50.196;8.096;2023-05-21T05:55:05;21.90;51.60
15983;DHT22;14442;50.196;8.096;2023-05-21T05:57:34;21.80;51.50
15983;DHT22;14442;50.196;8.096;2023-05-21T06:00:01;21.90;51.60
15983;DHT22;14442;50.196;8.096;2023-05-21T06:02:29;21.90;51.50
15983;DHT22;14442;50.196;8.096;2023-05-21T06:04:55;21.90;51.60
15983;DHT22;14442;50.196;8.096;2023-05-21T06:07:22;21.90;51.50
15983;DHT22;14442;50.196;8.096;2023-05-21T06:09:49;21.90;51.60
15983;DHT22;14442;50.196;8.096;2023-05-21T06:12:16;21.90;51.60
15983;DHT22;14442;50.196;8.096;2023-05-21T06:14:44;21.90;51.50
15983;DHT22;14442;50.196;8.096;2023-05-21T06:17:13;21.80;51.50
15983;DHT22;14442;50.196;8.096;2023-05-21T06:19:40;21.90;51.50
15983;DHT22;14442;50.196;8.096;2023-05-21T06:22:07;21.90;51.60
15983;DHT22;14442;50.196;8.096;2023-05-21T06:24:34;21.80;51.50
15983;DHT22;14442;50.196;8.096;2023-05-21T06:27:00;21.80;51.50
15983;DHT22;14442;50.196;8.096;2023-05-21T06:29:28;21.80;51.50
15983;DHT22;14442;50.196;8.096;2023-05-21T06:31:56;21.80;51.50
15983;DHT22;14442;50.196;8.096;2023-05-21T06:34:23;21.90;51.60
15983;DHT22;14442;50.196;8.096;2023-05-21T06:36:50;21.90;51.60
15983;DHT22;14442;50.196;8.096;2023-05-21T06:39:16;21.80;51.50
15983;DHT22;14442;50.196;8.096;2023-05-21T06:41:43;21.80;51.50
15983;DHT22;14442;50.196;8.096;2023-05-21T06:44:10;21.80;51.50
15983;DHT22;14442;50.196;8.096;2023-05-21T06:46:36;21.80;51.50
15983;DHT22;14442;50.196;8.096;2023-05-21T06:49:04;21.90;51.60
15983;DHT22;14442;50.196;8.096;2023-05-21T06:51:31;21.80;51.50
15983;DHT22;14442;50.196;8.096;2023-05-21T06:53:58;21.90;51.60
15983;DHT22;14442;50.196;8.096;2023-05-21T06:56:25;21.90;51.60
15983;DHT22;14442;50.196;8.096;2023-05-21T06:58:51;21.90;51.60
15983;DHT22;14442;50.196;8.096;2023-05-21T07:01:18;21.90;51.60
15983;DHT22;14442;50.196;8.096;2023-05-21T07:03:46;21.90;51.60
15983;DHT22;14442;50.196;8.096;2023-05-21T07:06:14;21.80;51.50
15983;DHT22;14442;50.196;8.096;2023-05-21T07:08:42;21.90;51.60
15983;DHT22;14442;50.196;8.096;2023-05-21T07:11:08;21.90;51.60
15983;DHT22;14442;50.196;8.096;2023-05-21T07:13:35;21.90;51.60
15983;DHT22;14442;50.196;8.096;2023-05-21T07:16:02;21.90;51.60
15983;DHT22;14442;50.196;8.096;2023-05-21T07:18:29;21.90;51.60
15983;DHT22;14442;50.196;8.096;2023-05-21T07:20:56;21.90;51.60
15983;DHT22;14442;50.196;8.096;2023-05-21T07:23:24;21.90;51.60
15983;DHT22;14442;50.196;8.096;2023-05-21T07:25:51;21.90;51.50
15983;DHT22;14442;50.196;8.096;2023-05-21T07:28:18;21.90;51.60
15983;DHT22;14442;50.196;8.096;2023-05-21T07:30:45;21.90;51.50
15983;DHT22;14442;50.196;8.096;2023-05-21T07:33:12;21.90;51.50
15983;DHT22;14442;50.196;8.096;2023-05-21T07:35:39;21.90;51.60
15983;DHT22;14442;50.196;8.096;2023-05-21T07:38:06;21.90;51.60
15983;DHT22;14442;50.196;8.096;2023-05-21T07:40:34;22.00;51.80
15983;DHT22;14442;50.196;8.096;2023-05-21T07:43:00;22.00;51.70
15983;DHT22;14442;50.196;8.096;2023-05-21T07:45:27;22.00;51.70
15983;DHT22;14442;50.196;8.096;2023-05-21T07:47:54;22.00;51.80
15983;DHT22;14442;50.196;8.096;2023-05-21T07:50:20;22.00;51.80
15983;DHT22;14442;50.196;8.096;2023-05-21T07:52:47;22.00;51.80
15983;DHT22;14442;50.196;8.096;2023-05-21T07:55:14;22.10;52.00
15983;DHT22;14442;50.196;8.096;2023-05-21T07:57:42;22.10;52.10
15983;DHT22;14442;50.196;8.096;2023-05-21T08:00:10;22.10;52.00
15983;DHT22;14442;50.196;8.096;2023-05-21T08:02:38;22.10;52.00
15983;DHT22;14442;50.196;8.096;2023-05-21T08:05:05;22.10;52.30
15983;DHT22;14442;50.196;8.096;2023-05-21T08:07:32;22.10;52.20
15983;DHT22;14442;50.196;8.096;2023-05-21T08:09:59;22.00;52.20
15983;DHT22;14442;50.196;8.096;2023-05-21T08:12:26;22.10;52.40
15983;DHT22;14442;50.196;8.096;2023-05-21T08:14:53;22.10;52.30
15983;DHT22;14442;50.196;8.096;2023-05-21T08:17:22;22.10;52.30
15983;DHT22;14442;50.196;8.096;2023-05-21T08:19:49;22.10;52.10
15983;DHT22;14442;50.196;8.096;2023-05-21T08:22:16;22.10;52.40
15983;DHT22;14442;50.196;8.096;2023-05-21T08:24:42;22.10;52.30
15983;DHT22;14442;50.196;8.096;2023-05-21T08:27:09;22.10;52.20
15983;DHT22;14442;50.196;8.096;2023-05-21T08:29:36;22.10;52.40
15983;DHT22;14442;50.196;8.096;2023-05-21T08:32:05;22.10;52.50
15983;DHT22;14442;50.196;8.096;2023-05-21T08:34:31;22.10;52.40
15983;DHT22;14442;50.196;8.096;2023-05-21T08:36:58;22.10;52.30
15983;DHT22;14442;50.196;8.096;2023-05-21T08:39:25;22.10;52.00
15983;DHT22;14442;50.196;8.096;2023-05-21T08:41:56;22.10;52.40
15983;DHT22;14442;50.196;8.096;2023-05-21T08:44:29;22.10;52.30
15983;DHT22;14442;50.196;8.096;2023-05-21T08:46:58;22.10;52.30
15983;DHT22;14442;50.196;8.096;2023-05-21T08:49:29;22.10;52.30
15983;DHT22;14442;50.196;8.096;2023-05-21T08:51:59;22.20;52.50
15983;DHT22;14442;50.196;8.096;2023-05-21T08:54:26;22.20;52.70
15983;DHT22;14442;50.196;8.096;2023-05-21T08:56:54;22.20;52.60
15983;DHT22;14442;50.196;8.096;2023-05-21T08:59:22;22.20;53.00
15983;DHT22;14442;50.196;8.096;2023-05-21T09:01:49;22.20;53.90
15983;DHT22;14442;50.196;8.096;2023-05-21T09:04:16;22.30;53.50
15983;DHT22;14442;50.196;8.096;2023-05-21T09:06:45;22.30;53.40
15983;DHT22;14442;50.196;8.096;2023-05-21T09:09:18;22.40;53.40
15983;DHT22;14442;50.196;8.096;2023-05-21T09:11:46;22.40;53.20
15983;DHT22;14442;50.196;8.096;2023-05-21T09:14:14;22.50;53.20
15983;DHT22;14442;50.196;8.096;2023-05-21T09:16:41;22.50;53.20
15983;DHT22;14442;50.196;8.096;2023-05-21T09:19:08;22.60;53.20
15983;DHT22;14442;50.196;8.096;2023-05-21T09:21:34;22.60;53.10
15983;DHT22;14442;50.196;8.096;2023-05-21T09:24:03;22.60;53.00
15983;DHT22;14442;50.196;8.096;2023-05-21T09:26:30;22.70;52.90
15983;DHT22;14442;50.196;8.096;2023-05-21T09:28:58;22.80;52.70
15983;DHT22;14442;50.196;8.096;2023-05-21T09:31:26;22.80;52.70
15983;DHT22;14442;50.196;8.096;2023-05-21T09:33:53;22.80;52.70
15983;DHT22;14442;50.196;8.096;2023-05-21T09:36:20;22.90;52.80
15983;DHT22;14442;50.196;8.096;2023-05-21T09:38:48;22.80;52.70
15983;DHT22;14442;50.196;8.096;2023-05-21T09:41:17;22.80;52.60
15983;DHT22;14442;50.196;8.096;2023-05-21T09:43:44;22.90;52.70
15983;DHT22;14442;50.196;8.096;2023-05-21T09:46:11;22.90;52.40
15983;DHT22;14442;50.196;8.096;2023-05-21T09:48:39;22.90;52.40
15983;DHT22;14442;50.196;8.096;2023-05-21T09:51:11;22.90;52.30
15983;DHT22;14442;50.196;8.096;2023-05-21T09:53:48;22.90;52.30
15983;DHT22;14442;50.196;8.096;2023-05-21T09:56:19;22.90;52.20
15983;DHT22;14442;50.196;8.096;2023-05-21T09:58:47;23.00;52.30
15983;DHT22;14442;50.196;8.096;2023-05-21T10:01:15;23.00;52.20
15983;DHT22;14442;50.196;8.096;2023-05-21T10:03:43;23.00;52.10
15983;DHT22;14442;50.196;8.096;2023-05-21T10:06:12;23.00;52.20
15983;DHT22;14442;50.196;8.096;2023-05-21T10:08:42;23.00;52.30
15983;DHT22;14442;50.196;8.096;2023-05-21T10:11:11;23.00;52.40
15983;DHT22;14442;50.196;8.096;2023-05-21T10:13:43;23.00;52.30
15983;DHT22;14442;50.196;8.096;2023-05-21T10:16:10;23.00;52.10
15983;DHT22;14442;50.196;8.096;2023-05-21T10:18:38;23.00;52.00
15983;DHT22;14442;50.196;8.096;2023-05-21T10:21:06;23.00;52.00
15983;DHT22;14442;50.196;8.096;2023-05-21T10:23:34;23.00;52.00
15983;DHT22;14442;50.196;8.096;2023-05-21T10:26:01;23.00;52.00
15983;DHT22;14442;50.196;8.096;2023-05-21T10:28:29;23.00;52.00
15983;DHT22;14442;50.196;8.096;2023-05-21T10:30:57;23.10;52.10
15983;DHT22;14442;50.196;8.096;2023-05-21T10:33:25;23.00;52.10
15983;DHT22;14442;50.196;8.096;2023-05-21T10:35:53;23.00;52.10
15983;DHT22;14442;50.196;8.096;2023-05-21T10:38:24;23.00;52.10
15983;DHT22;14442;50.196;8.096;2023-05-21T10:40:51;23.00;52.10
15983;DHT22;14442;50.196;8.096;2023-05-21T10:43:30;23.10;52.20
15983;DHT22;14442;50.196;8.096;2023-05-21T10:46:15;23.10;52.00
15983;DHT22;14442;50.196;8.096;2023-05-21T10:48:59;23.10;52.00
15983;DHT22;14442;50.196;8.096;2023-05-21T10:51:28;23.10;51.90
15983;DHT22;14442;50.196;8.096;2023-05-21T10:54:11;23.10;51.90
15983;DHT22;14442;50.196;8.096;2023-05-21T10:56:45;23.10;51.90
15983;DHT22;14442;50.196;8.096;2023-05-21T10:59:22;23.10;52.00
15983;DHT22;14442;50.196;8.096;2023-05-21T11:01:56;23.10;52.00
15983;DHT22;14442;50.196;8.096;2023-05-21T11:04:25;23.20;52.10
15983;DHT22;14442;50.196;8.096;2023-05-21T11:06:52;23.20;51.90
15983;DHT22;14442;50.196;8.096;2023-05-21T11:09:19;23.20;51.90
15983;DHT22;14442;50.196;8.096;2023-05-21T11:11:49;23.20;51.80
15983;DHT22;14442;50.196;8.096;2023-05-21T11:14:30;23.30;51.90
15983;DHT22;14442;50.196;8.096;2023-05-21T11:17:01;23.30;51.80
15983;DHT22;14442;50.196;8.096;2023-05-21T11:19:35;23.30;52.00
15983;DHT22;14442;50.196;8.096;2023-05-21T11:22:08;23.30;51.90
15983;DHT22;14442;50.196;8.096;2023-05-21T11:24:39;23.30;51.80
15983;DHT22;14442;50.196;8.096;2023-05-21T11:27:06;23.30;52.00
15983;DHT22;14442;50.196;8.096;2023-05-21T11:29:41;23.30;52.10
15983;DHT22;14442;50.196;8.096;2023-05-21T11:32:11;23.30;52.00
15983;DHT22;14442;50.196;8.096;2023-05-21T11:34:41;23.30;52.00
15983;DHT22;14442;50.196;8.096;2023-05-21T11:37:27;23.30;52.00
15983;DHT22;14442;50.196;8.096;2023-05-21T11:39:55;23.30;51.80
15983;DHT22;14442;50.196;8.096;2023-05-21T11:42:30;23.30;52.00
15983;DHT22;14442;50.196;8.096;2023-05-21T11:44:58;23.20;52.00
15983;DHT22;14442;50.196;8.096;2023-05-21T11:47:26;23.20;51.90
15983;DHT22;14442;50.196;8.096;2023-05-21T11:49:54;23.20;51.90
15983;DHT22;14442;50.196;8.096;2023-05-21T11:52:22;23.20;51.90
15983;DHT22;14442;50.196;8.096;2023-05-21T11:54:51;23.20;51.80
15983;DHT22;14442;50.196;8.096;2023-05-21T11:57:20;23.20;51.90
15983;DHT22;14442;50.196;8.096;2023-05-21T11:59:47;23.20;51.80
15983;DHT22;14442;50.196;8.096;2023-05-21T12:02:16;23.10;51.70
15983;DHT22;14442;50.196;8.096;2023-05-21T12:04:46;23.20;51.80
15983;DHT22;14442;50.196;8.096;2023-05-21T12:07:15;23.20;51.70
15983;DHT22;14442;50.196;8.096;2023-05-21T12:09:44;23.20;51.70
15983;DHT22;14442;50.196;8.096;2023-05-21T12:12:13;23.20;51.90
15983;DHT22;14442;50.196;8.096;2023-05-21T12:14:43;23.20;51.80
15983;DHT22;14442;50.196;8.096;2023-05-21T12:17:10;23.20;51.70
15983;DHT22;14442;50.196;8.096;2023-05-21T12:19:38;23.20;51.80
15983;DHT22;14442;50.196;8.096;2023-05-21T12:22:06;23.20;51.70
15983;DHT22;14442;50.196;8.096;2023-05-21T12:24:34;23.20;51.70
15983;DHT22;14442;50.196;8.096;2023-05-21T12:27:03;23.20;51.60
15983;DHT22;14442;50.196;8.096;2023-05-21T12:29:35;23.20;51.60
15983;DHT22;14442;50.196;8.096;2023-05-21T12:32:03;23.20;51.70
15983;DHT22;14442;50.196;8.096;2023-05-21T12:34:41;23.20;52.30
15983;DHT22;14442;50.196;8.096;2023-05-21T12:37:11;23.10;51.70
15983;DHT22;14442;50.196;8.096;2023-05-21T12:39:39;23.10;51.70
15983;DHT22;14442;50.196;8.096;2023-05-21T12:42:08;23.10;51.70
15983;DHT22;14442;50.196;8.096;2023-05-21T12:44:37;23.10;51.60
15983;DHT22;14442;50.196;8.096;2023-05-21T12:47:05;23.10;51.70
15983;DHT22;14442;50.196;8.096;2023-05-21T12:49:33;23.10;51.60
15983;DHT22;14442;50.196;8.096;2023-05-21T12:52:02;23.10;51.50
15983;DHT22;14442;50.196;8.096;2023-05-21T12:54:34;23.10;51.50
15983;DHT22;14442;50.196;8.096;2023-05-21T12:57:06;23.10;51.50
15983;DHT22;14442;50.196;8.096;2023-05-21T12:59:54;23.20;51.50
15983;DHT22;14442;50.196;8.096;2023-05-21T13:02:23;23.10;51.50
15983;DHT22;14442;50.196;8.096;2023-05-21T13:04:54;23.10;51.60
15983;DHT22;14442;50.196;8.096;2023-05-21T13:07:21;23.10;51.50
15983;DHT22;14442;50.196;8.096;2023-05-21T13:09:50;23.10;51.50
15983;DHT22;14442;50.196;8.096;2023-05-21T13:12:18;23.10;51.50
15983;DHT22;14442;50.196;8.096;2023-05-21T13:14:45;23.10;51.50
15983;DHT22;14442;50.196;8.096;2023-05-21T13:17:12;23.10;51.50
15983;DHT22;14442;50.196;8.096;2023-05-21T13:19:39;23.10;51.50
15983;DHT22;14442;50.196;8.096;2023-05-21T13:22:06;23.10;51.60
15983;DHT22;14442;50.196;8.096;2023-05-21T13:24:34;23.10;51.50
15983;DHT22;14442;50.196;8.096;2023-05-21T13:27:02;23.10;51.50
15983;DHT22;14442;50.196;8.096;2023-05-21T13:29:29;23.20;51.50
15983;DHT22;14442;50.196;8.096;2023-05-21T13:31:56;23.20;52.20
15983;DHT22;14442;50.196;8.096;2023-05-21T13:34:22;23.20;51.50
15983;DHT22;14442;50.196;8.096;2023-05-21T13:36:50;23.20;51.50
15983;DHT22;14442;50.196;8.096;2023-05-21T13:39:16;23.20;51.50
15983;DHT22;14442;50.196;8.096;2023-05-21T13:41:43;23.20;51.50
15983;DHT22;14442;50.196;8.096;2023-05-21T13:44:13;23.20;51.50
15983;DHT22;14442;50.196;8.096;2023-05-21T13:46:39;23.20;51.50
15983;DHT22;14442;50.196;8.096;2023-05-21T13:49:06;23.20;51.50
15983;DHT22;14442;50.196;8.096;2023-05-21T13:51:33;23.20;51.50
15983;DHT22;14442;50.196;8.096;2023-05-21T13:53:59;23.20;51.50
15983;DHT22;14442;50.196;8.096;2023-05-21T13:56:26;23.20;51.50
15983;DHT22;14442;50.196;8.096;2023-05-21T13:58:53;23.20;51.50
15983;DHT22;14442;50.196;8.096;2023-05-21T14:01:21;23.20;51.40
15983;DHT22;14442;50.196;8.096;2023-05-21T14:03:47;23.20;51.50
15983;DHT22;14442;50.196;8.096;2023-05-21T14:06:15;23.20;51.40
15983;DHT22;14442;50.196;8.096;2023-05-21T14:08:41;23.20;51.50
15983;DHT22;14442;50.196;8.096;2023-05-21T14:11:08;23.20;52.10
15983;DHT22;14442;50.196;8.096;2023-05-21T14:13:35;23.20;51.50
15983;DHT22;14442;50.196;8.096;2023-05-21T14:16:01;23.20;51.40
15983;DHT22;14442;50.196;8.096;2023-05-21T14:18:29;23.20;51.40
15983;DHT22;14442;50.196;8.096;2023-05-21T14:20:56;23.30;51.50
15983;DHT22;14442;50.196;8.096;2023-05-21T14:23:23;23.30;51.50
15983;DHT22;14442;50.196;8.096;2023-05-21T14:25:49;23.30;51.50
15983;DHT22;14442;50.196;8.096;2023-05-21T14:28:16;23.30;51.40
15983;DHT22;14442;50.196;8.096;2023-05-21T14:30:43;23.40;51.50
15983;DHT22;14442;50.196;8.096;2023-05-21T14:33:10;23.30;51.40
15983;DHT22;14442;50.196;8.096;2023-05-21T14:35:39;23.30;51.40
15983;DHT22;14442;50.196;8.096;2023-05-21T14:38:08;23.30;51.40
15983;DHT22;14442;50.196;8.096;2023-05-21T14:40:35;23.30;51.40
15983;DHT22;14442;50.196;8.096;2023-05-21T14:43:02;23.30;51.40
15983;DHT22;14442;50.196;8.096;2023-05-21T14:45:30;23.30;51.40
15983;DHT22;14442;50.196;8.096;2023-05-21T14:47:59;23.30;51.40
15983;DHT22;14442;50.196;8.096;2023-05-21T14:50:26;23.30;51.40
15983;DHT22;14442;50.196;8.096;2023-05-21T14:52:54;23.30;51.40
15983;DHT22;14442;50.196;8.096;2023-05-21T14:55:21;23.30;51.40
15983;DHT22;14442;50.196;8.096;2023-05-21T14:57:48;23.30;51.50
15983;DHT22;14442;50.196;8.096;2023-05-21T15:00:15;23.30;51.50
15983;DHT22;14442;50.196;8.096;2023-05-21T15:02:41;23.30;51.50
15983;DHT22;14442;50.196;8.096;2023-05-21T15:05:08;23.30;51.50
15983;DHT22;14442;50.196;8.096;2023-05-21T15:07:35;23.30;51.50
15983;DHT22;14442;50.196;8.096;2023-05-21T15:10:03;23.20;51.50
15983;DHT22;14442;50.196;8.096;2023-05-21T15:12:30;23.30;51.60
15983;DHT22;14442;50.196;8.096;2023-05-21T15:14:57;23.20;51.50
15983;DHT22;14442;50.196;8.096;2023-05-21T15:17:24;23.20;51.50
15983;DHT22;14442;50.196;8.096;2023-05-21T15:19:50;23.20;51.60
15983;DHT22;14442;50.196;8.096;2023-05-21T15:22:17;23.20;51.60
15983;DHT22;14442;50.196;8.096;2023-05-21T15:24:44;23.20;51.60
15983;DHT22;14442;50.196;8.096;2023-05-21T15:27:12;23.20;51.60
15983;DHT22;14442;50.196;8.096;2023-05-21T15:29:39;23.20;51.60
15983;DHT22;14442;50.196;8.096;2023-05-21T15:32:05;23.20;51.60
15983;DHT22;14442;50.196;8.096;2023-05-21T15:34:33;23.20;51.60